sensor_id;sensor_type;location;lat;lon;timestamp;P1;durP1;ratioP1;P2;durP2;ratioP2
48588;SDS011;34369;51.174;6.738;2023-02-01T00:01:40;44.00;;;40.70;;
48588;SDS011;34369;51.174;6.738;2023-02-01T00:04:12;42.90;;;39.60;;
48588;SDS011;34369;51.174;6.738;2023-02-01T00:06:45;44.77;;;41.27;;
48588;SDS011;34369;51.174;6.738;2023-02-01T00:09:16;41.60;;;38.57;;
48588;SDS011;34369;51.174;6.738;2023-02-01T00:11:50;41.73;;;38.33;;
48588;SDS011;34369;51.174;6.738;2023-02-01T00:14:22;46.93;;;43.27;;
48588;SDS011;34369;51.174;6.738;2023-02-01T00:16:54;41.03;;;37.67;;
48588;SDS011;34369;51.174;6.738;2023-02-01T00:19:26;43.40;;;40.10;;
48588;SDS011;34369;51.174;6.738;2023-02-01T00:21:58;42.60;;;39.00;;
48588;SDS011;34369;51.174;6.738;2023-02-01T00:24:30;42.27;;;38.93;;
48588;SDS011;34369;51.174;6.738;2023-02-01T00:27:03;42.93;;;39.67;;
48588;SDS011;34369;51.174;6.738;2023-02-01T00:29:35;41.20;;;37.87;;
48588;SDS011;34369;51.174;6.738;2023-02-01T00:32:07;41.40;;;38.17;;
48588;SDS011;34369;51.174;6.738;2023-02-01T00:34:39;44.40;;;41.03;;
48588;SDS011;34369;51.174;6.738;2023-02-01T00:37:11;41.83;;;38.63;;
48588;SDS011;34369;51.174;6.738;2023-02-01T00:39:43;41.77;;;38.50;;
48588;SDS011;34369;51.174;6.738;2023-02-01T00:42:16;40.90;;;37.87;;
48588;SDS011;34369;51.174;6.738;2023-02-01T00:44:48;39.97;;;36.87;;
48588;SDS011;34369;51.174;6.738;2023-02-01T00:47:20;40.67;;;37.60;;
48588;SDS011;34369;51.174;6.738;2023-02-01T00:49:51;38.73;;;35.83;;
48588;SDS011;34369;51.174;6.738;2023-02-01T00:52:23;41.43;;;38.13;;
48588;SDS011;34369;51.174;6.738;2023-02-01T00:54:55;40.13;;;37.10;;
48588;SDS011;34369;51.174;6.738;2023-02-01T00:57:29;39.67;;;36.53;;
48588;SDS011;34369;51.174;6.738;2023-02-01T01:00:02;40.57;;;37.07;;
48588;SDS011;34369;51.174;6.738;2023-02-01T01:02:34;41.30;;;38.00;;
48588;SDS011;34369;51.174;6.738;2023-02-01T01:05:06;41.80;;;38.37;;
48588;SDS011;34369;51.174;6.738;2023-02-01T01:07:39;38.73;;;35.63;;
48588;SDS011;34369;51.174;6.738;2023-02-01T01:10:11;40.37;;;37.13;;
48588;SDS011;34369;51.174;6.738;2023-02-01T01:12:44;37.40;;;34.70;;
48588;SDS011;34369;51.174;6.738;2023-02-01T01:15:16;39.37;;;36.53;;
48588;SDS011;34369;51.174;6.738;2023-02-01T01:17:48;38.53;;;35.53;;
48588;SDS011;34369;51.174;6.738;2023-02-01T01:20:20;39.17;;;36.07;;
48588;SDS011;34369;51.174;6.738;2023-02-01T01:22:52;36.50;;;33.80;;
48588;SDS011;34369;51.174;6.738;2023-02-01T01:25:24;37.40;;;34.37;;
48588;SDS011;34369;51.174;6.738;2023-02-01T01:27:57;40.00;;;37.00;;
48588;SDS011;34369;51.174;6.738;2023-02-01T01:30:29;39.03;;;36.03;;
48588;SDS011;34369;51.174;6.738;2023-02-01T01:33:01;38.93;;;36.10;;
48588;SDS011;34369;51.174;6.738;2023-02-01T01:35:34;36.40;;;33.80;;
48588;SDS011;34369;51.174;6.738;2023-02-01T01:38:06;37.33;;;34.50;;
48588;SDS011;34369;51.174;6.738;2023-02-01T01:40:39;38.40;;;35.30;;
48588;SDS011;34369;51.174;6.738;2023-02-01T01:43:18;36.67;;;34.13;;
48588;SDS011;34369;51.174;6.738;2023-02-01T01:48:24;38.70;;;35.90;;
48588;SDS011;34369;51.174;6.738;2023-02-01T01:50:59;39.93;;;36.83;;
48588;SDS011;34369;51.174;6.738;2023-02-01T01:53:37;38.00;;;35.33;;
48588;SDS011;34369;51.174;6.738;2023-02-01T01:56:15;37.30;;;34.03;;
48588;SDS011;34369;51.174;6.738;2023-02-01T01:58:48;37.40;;;34.47;;
48588;SDS011;34369;51.174;6.738;2023-02-01T02:01:20;40.13;;;36.60;;
48588;SDS011;34369;51.174;6.738;2023-02-01T02:03:52;42.13;;;38.37;;
48588;SDS011;34369;51.174;6.738;2023-02-01T02:06:27;37.90;;;35.00;;
48588;SDS011;34369;51.174;6.738;2023-02-01T02:09:09;37.30;;;34.43;;
48588;SDS011;34369;51.174;6.738;2023-02-01T02:11:41;38.47;;;35.47;;
48588;SDS011;34369;51.174;6.738;2023-02-01T02:14:15;38.90;;;36.03;;
48588;SDS011;34369;51.174;6.738;2023-02-01T02:16:53;37.80;;;35.17;;
48588;SDS011;34369;51.174;6.738;2023-02-01T02:27:01;39.00;;;36.00;;
48588;SDS011;34369;51.174;6.738;2023-02-01T02:30:02;38.93;;;36.13;;
48588;SDS011;34369;51.174;6.738;2023-02-01T02:33:20;40.67;;;37.53;;
48588;SDS011;34369;51.174;6.738;2023-02-01T02:36:10;37.77;;;34.87;;
48588;SDS011;34369;51.174;6.738;2023-02-01T02:38:52;40.03;;;37.03;;
48588;SDS011;34369;51.174;6.738;2023-02-01T02:41:31;37.53;;;34.63;;
48588;SDS011;34369;51.174;6.738;2023-02-01T02:44:32;38.40;;;35.40;;
48588;SDS011;34369;51.174;6.738;2023-02-01T02:47:35;39.70;;;36.63;;
48588;SDS011;34369;51.174;6.738;2023-02-01T02:50:25;37.60;;;34.77;;
48588;SDS011;34369;51.174;6.738;2023-02-01T02:53:18;39.70;;;36.63;;
48588;SDS011;34369;51.174;6.738;2023-02-01T02:56:13;38.00;;;35.40;;
48588;SDS011;34369;51.174;6.738;2023-02-01T02:59:05;38.37;;;35.30;;
48588;SDS011;34369;51.174;6.738;2023-02-01T03:01:57;37.90;;;35.10;;
48588;SDS011;34369;51.174;6.738;2023-02-01T03:04:51;39.07;;;36.10;;
48588;SDS011;34369;51.174;6.738;2023-02-01T03:07:47;39.20;;;36.23;;
48588;SDS011;34369;51.174;6.738;2023-02-01T03:10:29;37.83;;;35.00;;
48588;SDS011;34369;51.174;6.738;2023-02-01T03:13:10;38.23;;;35.27;;
48588;SDS011;34369;51.174;6.738;2023-02-01T03:15:51;40.50;;;37.17;;
48588;SDS011;34369;51.174;6.738;2023-02-01T03:18:33;38.43;;;35.20;;
48588;SDS011;34369;51.174;6.738;2023-02-01T03:21:10;40.43;;;37.23;;
48588;SDS011;34369;51.174;6.738;2023-02-01T03:23:48;37.73;;;34.50;;
48588;SDS011;34369;51.174;6.738;2023-02-01T03:26:22;40.77;;;37.57;;
48588;SDS011;34369;51.174;6.738;2023-02-01T03:29:02;38.67;;;35.63;;
48588;SDS011;34369;51.174;6.738;2023-02-01T03:31:41;37.63;;;34.73;;
48588;SDS011;34369;51.174;6.738;2023-02-01T03:34:14;39.53;;;36.43;;
48588;SDS011;34369;51.174;6.738;2023-02-01T03:36:47;38.83;;;35.57;;
48588;SDS011;34369;51.174;6.738;2023-02-01T03:39:24;38.38;;;35.20;;
48588;SDS011;34369;51.174;6.738;2023-02-01T03:42:03;36.60;;;33.60;;
48588;SDS011;34369;51.174;6.738;2023-02-01T03:44:39;39.05;;;36.10;;
48588;SDS011;34369;51.174;6.738;2023-02-01T03:47:17;37.93;;;34.67;;
48588;SDS011;34369;51.174;6.738;2023-02-01T03:49:53;38.90;;;35.72;;
48588;SDS011;34369;51.174;6.738;2023-02-01T03:52:30;40.43;;;36.43;;
48588;SDS011;34369;51.174;6.738;2023-02-01T03:55:11;37.00;;;34.20;;
48588;SDS011;34369;51.174;6.738;2023-02-01T03:57:48;39.22;;;36.28;;
48588;SDS011;34369;51.174;6.738;2023-02-01T04:00:25;37.33;;;34.43;;
48588;SDS011;34369;51.174;6.738;2023-02-01T04:02:58;38.73;;;35.43;;
48588;SDS011;34369;51.174;6.738;2023-02-01T04:05:30;40.10;;;36.47;;
48588;SDS011;34369;51.174;6.738;2023-02-01T04:08:02;38.03;;;34.97;;
48588;SDS011;34369;51.174;6.738;2023-02-01T04:10:37;39.90;;;36.63;;
48588;SDS011;34369;51.174;6.738;2023-02-01T04:13:09;38.67;;;34.97;;
48588;SDS011;34369;51.174;6.738;2023-02-01T04:15:41;39.47;;;36.37;;
48588;SDS011;34369;51.174;6.738;2023-02-01T04:18:13;40.50;;;36.73;;
48588;SDS011;34369;51.174;6.738;2023-02-01T04:20:45;39.47;;;36.00;;
48588;SDS011;34369;51.174;6.738;2023-02-01T04:23:17;36.53;;;33.13;;
48588;SDS011;34369;51.174;6.738;2023-02-01T04:25:50;37.70;;;34.57;;
48588;SDS011;34369;51.174;6.738;2023-02-01T04:28:22;41.23;;;37.67;;
48588;SDS011;34369;51.174;6.738;2023-02-01T04:30:54;38.07;;;34.80;;
48588;SDS011;34369;51.174;6.738;2023-02-01T04:33:26;38.60;;;35.53;;
48588;SDS011;34369;51.174;6.738;2023-02-01T04:35:58;38.07;;;34.93;;
48588;SDS011;34369;51.174;6.738;2023-02-01T04:38:31;39.60;;;36.30;;
48588;SDS011;34369;51.174;6.738;2023-02-01T04:41:04;37.77;;;34.67;;
48588;SDS011;34369;51.174;6.738;2023-02-01T04:43:37;37.87;;;34.83;;
48588;SDS011;34369;51.174;6.738;2023-02-01T04:46:09;39.40;;;36.10;;
48588;SDS011;34369;51.174;6.738;2023-02-01T04:48:41;40.10;;;37.03;;
48588;SDS011;34369;51.174;6.738;2023-02-01T04:51:14;39.57;;;36.30;;
48588;SDS011;34369;51.174;6.738;2023-02-01T04:53:46;39.20;;;36.10;;
48588;SDS011;34369;51.174;6.738;2023-02-01T04:59:33;39.20;;;35.72;;
48588;SDS011;34369;51.174;6.738;2023-02-01T05:02:08;37.90;;;34.90;;
48588;SDS011;34369;51.174;6.738;2023-02-01T05:04:41;41.97;;;38.77;;
48588;SDS011;34369;51.174;6.738;2023-02-01T05:07:13;37.77;;;34.57;;
48588;SDS011;34369;51.174;6.738;2023-02-01T05:09:46;40.20;;;36.50;;
48588;SDS011;34369;51.174;6.738;2023-02-01T05:12:19;40.43;;;37.13;;
48588;SDS011;34369;51.174;6.738;2023-02-01T05:15:09;39.47;;;36.33;;
48588;SDS011;34369;51.174;6.738;2023-02-01T05:17:43;38.77;;;35.43;;
48588;SDS011;34369;51.174;6.738;2023-02-01T05:20:15;39.63;;;36.63;;
48588;SDS011;34369;51.174;6.738;2023-02-01T05:22:48;38.33;;;34.93;;
48588;SDS011;34369;51.174;6.738;2023-02-01T05:25:20;37.40;;;34.47;;
48588;SDS011;34369;51.174;6.738;2023-02-01T05:27:54;40.90;;;37.70;;
48588;SDS011;34369;51.174;6.738;2023-02-01T05:30:26;40.37;;;37.10;;
48588;SDS011;34369;51.174;6.738;2023-02-01T05:32:59;38.77;;;35.53;;
48588;SDS011;34369;51.174;6.738;2023-02-01T05:35:31;38.90;;;34.83;;
48588;SDS011;34369;51.174;6.738;2023-02-01T05:38:03;39.10;;;35.83;;
48588;SDS011;34369;51.174;6.738;2023-02-01T05:40:37;38.73;;;35.50;;
48588;SDS011;34369;51.174;6.738;2023-02-01T05:43:11;41.40;;;38.07;;
48588;SDS011;34369;51.174;6.738;2023-02-01T05:45:43;40.77;;;37.43;;
48588;SDS011;34369;51.174;6.738;2023-02-01T05:48:16;39.17;;;35.93;;
48588;SDS011;34369;51.174;6.738;2023-02-01T05:50:48;39.93;;;36.77;;
48588;SDS011;34369;51.174;6.738;2023-02-01T05:53:21;38.93;;;35.87;;
48588;SDS011;34369;51.174;6.738;2023-02-01T05:55:53;38.20;;;35.17;;
48588;SDS011;34369;51.174;6.738;2023-02-01T05:58:27;40.70;;;37.67;;
48588;SDS011;34369;51.174;6.738;2023-02-01T06:01:04;39.63;;;36.35;;
48588;SDS011;34369;51.174;6.738;2023-02-01T06:03:42;38.90;;;35.70;;
48588;SDS011;34369;51.174;6.738;2023-02-01T06:06:20;41.17;;;37.53;;
48588;SDS011;34369;51.174;6.738;2023-02-01T06:08:52;38.37;;;35.30;;
48588;SDS011;34369;51.174;6.738;2023-02-01T06:11:26;38.90;;;35.63;;
48588;SDS011;34369;51.174;6.738;2023-02-01T06:14:00;38.93;;;35.83;;
48588;SDS011;34369;51.174;6.738;2023-02-01T06:16:42;40.43;;;36.97;;
48588;SDS011;34369;51.174;6.738;2023-02-01T06:19:15;41.00;;;37.87;;
48588;SDS011;34369;51.174;6.738;2023-02-01T06:21:57;40.63;;;37.17;;
48588;SDS011;34369;51.174;6.738;2023-02-01T06:24:31;39.80;;;36.53;;
48588;SDS011;34369;51.174;6.738;2023-02-01T06:27:03;40.23;;;36.50;;
48588;SDS011;34369;51.174;6.738;2023-02-01T06:29:41;38.50;;;35.17;;
48588;SDS011;34369;51.174;6.738;2023-02-01T06:32:14;40.13;;;36.63;;
48588;SDS011;34369;51.174;6.738;2023-02-01T06:34:47;38.70;;;35.10;;
48588;SDS011;34369;51.174;6.738;2023-02-01T06:37:23;39.50;;;36.30;;
48588;SDS011;34369;51.174;6.738;2023-02-01T06:39:56;38.10;;;35.10;;
48588;SDS011;34369;51.174;6.738;2023-02-01T06:42:28;41.00;;;37.73;;
48588;SDS011;34369;51.174;6.738;2023-02-01T06:45:16;37.60;;;34.63;;
48588;SDS011;34369;51.174;6.738;2023-02-01T06:47:56;38.77;;;35.60;;
48588;SDS011;34369;51.174;6.738;2023-02-01T06:50:54;40.00;;;36.80;;
48588;SDS011;34369;51.174;6.738;2023-02-01T06:53:45;40.03;;;36.73;;
48588;SDS011;34369;51.174;6.738;2023-02-01T06:56:20;39.40;;;36.27;;
48588;SDS011;34369;51.174;6.738;2023-02-01T06:59:10;39.67;;;36.27;;
48588;SDS011;34369;51.174;6.738;2023-02-01T07:01:52;39.77;;;36.53;;
48588;SDS011;34369;51.174;6.738;2023-02-01T07:07:47;40.47;;;36.37;;
48588;SDS011;34369;51.174;6.738;2023-02-01T07:10:21;39.00;;;35.80;;
48588;SDS011;34369;51.174;6.738;2023-02-01T07:12:56;39.97;;;36.40;;
48588;SDS011;34369;51.174;6.738;2023-02-01T07:15:39;38.70;;;35.50;;
48588;SDS011;34369;51.174;6.738;2023-02-01T07:18:18;38.53;;;35.17;;
48588;SDS011;34369;51.174;6.738;2023-02-01T07:20:51;37.47;;;34.43;;
48588;SDS011;34369;51.174;6.738;2023-02-01T07:23:29;39.57;;;35.87;;
48588;SDS011;34369;51.174;6.738;2023-02-01T07:26:12;38.83;;;35.67;;
48588;SDS011;34369;51.174;6.738;2023-02-01T07:28:47;39.57;;;36.20;;
48588;SDS011;34369;51.174;6.738;2023-02-01T07:31:20;39.13;;;35.50;;
48588;SDS011;34369;51.174;6.738;2023-02-01T07:33:56;36.60;;;33.53;;
48588;SDS011;34369;51.174;6.738;2023-02-01T07:36:30;39.10;;;35.23;;
48588;SDS011;34369;51.174;6.738;2023-02-01T07:39:06;39.57;;;36.00;;
48588;SDS011;34369;51.174;6.738;2023-02-01T07:41:40;40.50;;;36.80;;
48588;SDS011;34369;51.174;6.738;2023-02-01T07:44:14;38.97;;;35.60;;
48588;SDS011;34369;51.174;6.738;2023-02-01T07:46:54;38.77;;;35.57;;
48588;SDS011;34369;51.174;6.738;2023-02-01T07:49:29;39.77;;;36.33;;
48588;SDS011;34369;51.174;6.738;2023-02-01T07:52:05;39.07;;;35.87;;
48588;SDS011;34369;51.174;6.738;2023-02-01T07:54:38;38.97;;;35.43;;
48588;SDS011;34369;51.174;6.738;2023-02-01T07:57:11;39.67;;;36.47;;
48588;SDS011;34369;51.174;6.738;2023-02-01T07:59:44;38.47;;;35.33;;
48588;SDS011;34369;51.174;6.738;2023-02-01T08:02:31;37.20;;;33.97;;
48588;SDS011;34369;51.174;6.738;2023-02-01T08:05:07;36.43;;;33.10;;
48588;SDS011;34369;51.174;6.738;2023-02-01T08:07:42;38.87;;;35.17;;
48588;SDS011;34369;51.174;6.738;2023-02-01T08:10:14;38.90;;;35.70;;
48588;SDS011;34369;51.174;6.738;2023-02-01T08:12:48;39.83;;;36.37;;
48588;SDS011;34369;51.174;6.738;2023-02-01T08:15:22;39.63;;;36.10;;
48588;SDS011;34369;51.174;6.738;2023-02-01T08:17:55;37.53;;;33.97;;
48588;SDS011;34369;51.174;6.738;2023-02-01T08:20:34;39.13;;;35.90;;
48588;SDS011;34369;51.174;6.738;2023-02-01T08:23:12;38.67;;;35.25;;
48588;SDS011;34369;51.174;6.738;2023-02-01T08:25:50;37.30;;;34.23;;
48588;SDS011;34369;51.174;6.738;2023-02-01T08:28:23;39.57;;;36.13;;
48588;SDS011;34369;51.174;6.738;2023-02-01T08:30:57;38.60;;;35.50;;
48588;SDS011;34369;51.174;6.738;2023-02-01T08:33:29;39.37;;;36.00;;
48588;SDS011;34369;51.174;6.738;2023-02-01T08:36:05;40.23;;;36.90;;
48588;SDS011;34369;51.174;6.738;2023-02-01T08:38:39;37.80;;;34.93;;
48588;SDS011;34369;51.174;6.738;2023-02-01T08:41:13;40.23;;;36.97;;
48588;SDS011;34369;51.174;6.738;2023-02-01T08:43:49;39.47;;;36.08;;
48588;SDS011;34369;51.174;6.738;2023-02-01T08:46:23;38.63;;;35.53;;
48588;SDS011;34369;51.174;6.738;2023-02-01T08:48:55;38.03;;;35.00;;
48588;SDS011;34369;51.174;6.738;2023-02-01T08:51:30;40.80;;;37.57;;
48588;SDS011;34369;51.174;6.738;2023-02-01T08:54:04;38.10;;;34.90;;
48588;SDS011;34369;51.174;6.738;2023-02-01T08:56:39;38.23;;;35.07;;
48588;SDS011;34369;51.174;6.738;2023-02-01T08:59:15;38.93;;;35.33;;
48588;SDS011;34369;51.174;6.738;2023-02-01T09:01:48;41.10;;;37.40;;
48588;SDS011;34369;51.174;6.738;2023-02-01T09:04:20;37.77;;;34.53;;
48588;SDS011;34369;51.174;6.738;2023-02-01T09:06:56;38.47;;;35.30;;
48588;SDS011;34369;51.174;6.738;2023-02-01T09:09:29;37.87;;;34.77;;
48588;SDS011;34369;51.174;6.738;2023-02-01T09:12:04;38.47;;;35.17;;
48588;SDS011;34369;51.174;6.738;2023-02-01T09:14:37;38.57;;;35.17;;
48588;SDS011;34369;51.174;6.738;2023-02-01T09:17:10;38.07;;;34.97;;
48588;SDS011;34369;51.174;6.738;2023-02-01T09:19:44;38.77;;;35.37;;
48588;SDS011;34369;51.174;6.738;2023-02-01T09:22:19;38.37;;;35.20;;
48588;SDS011;34369;51.174;6.738;2023-02-01T09:24:52;38.20;;;35.27;;
48588;SDS011;34369;51.174;6.738;2023-02-01T09:27:25;39.37;;;36.10;;
48588;SDS011;34369;51.174;6.738;2023-02-01T09:30:07;37.87;;;34.77;;
48588;SDS011;34369;51.174;6.738;2023-02-01T09:35:17;38.93;;;35.63;;
48588;SDS011;34369;51.174;6.738;2023-02-01T09:37:53;39.57;;;36.37;;
48588;SDS011;34369;51.174;6.738;2023-02-01T09:40:26;39.07;;;36.07;;
48588;SDS011;34369;51.174;6.738;2023-02-01T09:43:06;40.43;;;37.13;;
48588;SDS011;34369;51.174;6.738;2023-02-01T09:45:55;37.57;;;34.63;;
48588;SDS011;34369;51.174;6.738;2023-02-01T09:48:38;37.83;;;34.63;;
48588;SDS011;34369;51.174;6.738;2023-02-01T09:51:15;36.92;;;34.05;;
48588;SDS011;34369;51.174;6.738;2023-02-01T09:54:00;37.67;;;34.43;;
48588;SDS011;34369;51.174;6.738;2023-02-01T09:56:39;38.73;;;35.53;;
48588;SDS011;34369;51.174;6.738;2023-02-01T09:59:21;37.90;;;34.80;;
48588;SDS011;34369;51.174;6.738;2023-02-01T10:02:11;38.40;;;35.30;;
48588;SDS011;34369;51.174;6.738;2023-02-01T10:04:50;38.30;;;35.00;;
48588;SDS011;34369;51.174;6.738;2023-02-01T10:07:31;38.20;;;34.80;;
48588;SDS011;34369;51.174;6.738;2023-02-01T10:10:20;38.53;;;34.97;;
48588;SDS011;34369;51.174;6.738;2023-02-01T10:13:15;37.40;;;34.43;;
48588;SDS011;34369;51.174;6.738;2023-02-01T10:16:17;39.20;;;35.70;;
48588;SDS011;34369;51.174;6.738;2023-02-01T10:21:59;36.40;;;33.10;;
48588;SDS011;34369;51.174;6.738;2023-02-01T10:24:38;38.97;;;35.80;;
48588;SDS011;34369;51.174;6.738;2023-02-01T10:27:16;38.80;;;35.63;;
48588;SDS011;34369;51.174;6.738;2023-02-01T10:29:52;39.43;;;36.20;;
48588;SDS011;34369;51.174;6.738;2023-02-01T10:32:31;36.77;;;33.63;;
48588;SDS011;34369;51.174;6.738;2023-02-01T10:35:15;36.77;;;33.70;;
48588;SDS011;34369;51.174;6.738;2023-02-01T10:37:50;37.90;;;34.70;;
48588;SDS011;34369;51.174;6.738;2023-02-01T10:40:24;36.93;;;34.13;;
48588;SDS011;34369;51.174;6.738;2023-02-01T10:43:00;39.43;;;36.03;;
48588;SDS011;34369;51.174;6.738;2023-02-01T10:45:33;37.63;;;34.40;;
48588;SDS011;34369;51.174;6.738;2023-02-01T10:48:07;37.63;;;34.30;;
48588;SDS011;34369;51.174;6.738;2023-02-01T10:50:45;36.43;;;33.73;;
48588;SDS011;34369;51.174;6.738;2023-02-01T10:53:28;38.10;;;35.23;;
48588;SDS011;34369;51.174;6.738;2023-02-01T10:56:08;37.80;;;34.63;;
48588;SDS011;34369;51.174;6.738;2023-02-01T10:58:59;38.03;;;34.38;;
48588;SDS011;34369;51.174;6.738;2023-02-01T11:01:38;37.10;;;34.00;;
48588;SDS011;34369;51.174;6.738;2023-02-01T11:04:15;37.50;;;34.30;;
48588;SDS011;34369;51.174;6.738;2023-02-01T11:06:54;37.60;;;34.33;;
48588;SDS011;34369;51.174;6.738;2023-02-01T11:09:41;37.10;;;33.97;;
48588;SDS011;34369;51.174;6.738;2023-02-01T11:12:27;36.93;;;33.83;;
48588;SDS011;34369;51.174;6.738;2023-02-01T11:15:12;36.80;;;33.70;;
48588;SDS011;34369;51.174;6.738;2023-02-01T11:18:12;36.70;;;33.70;;
48588;SDS011;34369;51.174;6.738;2023-02-01T11:20:49;38.07;;;34.77;;
48588;SDS011;34369;51.174;6.738;2023-02-01T11:23:22;36.90;;;33.90;;
48588;SDS011;34369;51.174;6.738;2023-02-01T11:25:58;37.90;;;34.83;;
48588;SDS011;34369;51.174;6.738;2023-02-01T11:28:33;37.03;;;34.13;;
48588;SDS011;34369;51.174;6.738;2023-02-01T11:31:12;35.40;;;32.40;;
48588;SDS011;34369;51.174;6.738;2023-02-01T11:33:47;38.47;;;35.07;;
48588;SDS011;34369;51.174;6.738;2023-02-01T11:36:24;35.63;;;32.50;;
48588;SDS011;34369;51.174;6.738;2023-02-01T11:39:09;37.20;;;34.00;;
48588;SDS011;34369;51.174;6.738;2023-02-01T11:41:56;36.10;;;33.60;;
48588;SDS011;34369;51.174;6.738;2023-02-01T11:44:34;37.03;;;33.90;;
48588;SDS011;34369;51.174;6.738;2023-02-01T11:47:20;35.87;;;33.00;;
48588;SDS011;34369;51.174;6.738;2023-02-01T11:49:56;36.20;;;33.20;;
48588;SDS011;34369;51.174;6.738;2023-02-01T11:55:33;36.53;;;33.57;;
48588;SDS011;34369;51.174;6.738;2023-02-01T11:58:32;34.10;;;31.33;;
48588;SDS011;34369;51.174;6.738;2023-02-01T12:01:31;36.00;;;33.07;;
48588;SDS011;34369;51.174;6.738;2023-02-01T12:04:29;36.63;;;33.53;;
48588;SDS011;34369;51.174;6.738;2023-02-01T12:07:42;37.23;;;34.27;;
48588;SDS011;34369;51.174;6.738;2023-02-01T12:10:34;35.13;;;32.33;;
48588;SDS011;34369;51.174;6.738;2023-02-01T12:13:20;33.63;;;31.13;;
48588;SDS011;34369;51.174;6.738;2023-02-01T12:16:16;37.27;;;34.27;;
48588;SDS011;34369;51.174;6.738;2023-02-01T12:22:11;37.63;;;34.23;;
48588;SDS011;34369;51.174;6.738;2023-02-01T12:25:07;36.67;;;33.17;;
48588;SDS011;34369;51.174;6.738;2023-02-01T12:27:59;35.53;;;32.93;;
48588;SDS011;34369;51.174;6.738;2023-02-01T12:34:15;35.37;;;32.67;;
48588;SDS011;34369;51.174;6.738;2023-02-01T12:37:08;36.63;;;33.63;;
48588;SDS011;34369;51.174;6.738;2023-02-01T12:40:02;36.73;;;33.50;;
48588;SDS011;34369;51.174;6.738;2023-02-01T12:42:52;36.93;;;33.93;;
48588;SDS011;34369;51.174;6.738;2023-02-01T12:45:30;36.93;;;33.83;;
48588;SDS011;34369;51.174;6.738;2023-02-01T12:48:19;35.30;;;32.47;;
48588;SDS011;34369;51.174;6.738;2023-02-01T12:51:02;37.67;;;34.80;;
48588;SDS011;34369;51.174;6.738;2023-02-01T12:53:44;35.13;;;32.30;;
48588;SDS011;34369;51.174;6.738;2023-02-01T12:56:25;36.43;;;33.43;;
48588;SDS011;34369;51.174;6.738;2023-02-01T12:59:09;35.73;;;33.07;;
48588;SDS011;34369;51.174;6.738;2023-02-01T13:01:52;35.93;;;33.03;;
48588;SDS011;34369;51.174;6.738;2023-02-01T13:04:32;36.13;;;33.43;;
48588;SDS011;34369;51.174;6.738;2023-02-01T13:07:13;36.00;;;33.00;;
48588;SDS011;34369;51.174;6.738;2023-02-01T13:09:53;35.67;;;32.83;;
48588;SDS011;34369;51.174;6.738;2023-02-01T13:12:34;37.77;;;34.57;;
48588;SDS011;34369;51.174;6.738;2023-02-01T13:15:20;35.87;;;32.97;;
48588;SDS011;34369;51.174;6.738;2023-02-01T13:17:58;36.50;;;33.60;;
48588;SDS011;34369;51.174;6.738;2023-02-01T13:20:35;36.87;;;34.03;;
48588;SDS011;34369;51.174;6.738;2023-02-01T13:23:17;37.57;;;34.43;;
48588;SDS011;34369;51.174;6.738;2023-02-01T13:26:00;35.50;;;32.50;;
48588;SDS011;34369;51.174;6.738;2023-02-01T13:28:40;37.90;;;34.73;;
48588;SDS011;34369;51.174;6.738;2023-02-01T13:31:21;34.97;;;32.17;;
48588;SDS011;34369;51.174;6.738;2023-02-01T13:34:39;36.07;;;33.00;;
48588;SDS011;34369;51.174;6.738;2023-02-01T13:37:43;36.10;;;33.03;;
48588;SDS011;34369;51.174;6.738;2023-02-01T13:40:39;37.60;;;34.83;;
48588;SDS011;34369;51.174;6.738;2023-02-01T13:43:18;34.87;;;32.33;;
48588;SDS011;34369;51.174;6.738;2023-02-01T13:45:56;34.50;;;31.83;;
48588;SDS011;34369;51.174;6.738;2023-02-01T13:48:38;35.80;;;32.83;;
48588;SDS011;34369;51.174;6.738;2023-02-01T13:51:19;37.20;;;34.10;;
48588;SDS011;34369;51.174;6.738;2023-02-01T13:54:23;37.43;;;34.20;;
48588;SDS011;34369;51.174;6.738;2023-02-01T13:57:02;35.23;;;32.43;;
48588;SDS011;34369;51.174;6.738;2023-02-01T14:02:46;34.50;;;31.83;;
48588;SDS011;34369;51.174;6.738;2023-02-01T14:08:37;35.63;;;32.77;;
48588;SDS011;34369;51.174;6.738;2023-02-01T14:17:54;35.97;;;33.00;;
48588;SDS011;34369;51.174;6.738;2023-02-01T14:23:29;34.50;;;31.73;;
48588;SDS011;34369;51.174;6.738;2023-02-01T14:29:00;33.97;;;31.30;;
48588;SDS011;34369;51.174;6.738;2023-02-01T14:31:46;34.30;;;31.40;;
48588;SDS011;34369;51.174;6.738;2023-02-01T14:34:30;35.27;;;32.77;;
48588;SDS011;34369;51.174;6.738;2023-02-01T14:37:22;33.40;;;30.77;;
48588;SDS011;34369;51.174;6.738;2023-02-01T14:39:59;35.63;;;32.70;;
48588;SDS011;34369;51.174;6.738;2023-02-01T14:42:37;34.78;;;32.22;;
48588;SDS011;34369;51.174;6.738;2023-02-01T14:51:17;34.73;;;32.00;;
48588;SDS011;34369;51.174;6.738;2023-02-01T14:53:53;35.00;;;32.40;;
48588;SDS011;34369;51.174;6.738;2023-02-01T14:56:25;34.17;;;31.77;;
48588;SDS011;34369;51.174;6.738;2023-02-01T14:59:00;34.40;;;31.67;;
48588;SDS011;34369;51.174;6.738;2023-02-01T15:01:40;35.93;;;32.93;;
48588;SDS011;34369;51.174;6.738;2023-02-01T15:04:24;33.63;;;31.33;;
48588;SDS011;34369;51.174;6.738;2023-02-01T15:07:07;34.50;;;31.67;;
48588;SDS011;34369;51.174;6.738;2023-02-01T15:09:44;34.60;;;31.67;;
48588;SDS011;34369;51.174;6.738;2023-02-01T15:12:23;36.55;;;33.65;;
48588;SDS011;34369;51.174;6.738;2023-02-01T15:15:09;34.73;;;32.17;;
48588;SDS011;34369;51.174;6.738;2023-02-01T15:17:50;35.40;;;32.60;;
48588;SDS011;34369;51.174;6.738;2023-02-01T15:20:27;35.60;;;33.07;;
48588;SDS011;34369;51.174;6.738;2023-02-01T15:23:02;35.85;;;33.10;;
48588;SDS011;34369;51.174;6.738;2023-02-01T15:25:39;34.63;;;32.03;;
48588;SDS011;34369;51.174;6.738;2023-02-01T15:28:12;35.37;;;32.37;;
48588;SDS011;34369;51.174;6.738;2023-02-01T15:30:56;35.40;;;32.40;;
48588;SDS011;34369;51.174;6.738;2023-02-01T15:33:30;35.10;;;32.17;;
48588;SDS011;34369;51.174;6.738;2023-02-01T15:36:08;36.20;;;32.93;;
48588;SDS011;34369;51.174;6.738;2023-02-01T15:38:43;35.13;;;32.53;;
48588;SDS011;34369;51.174;6.738;2023-02-01T15:41:17;35.67;;;32.53;;
48588;SDS011;34369;51.174;6.738;2023-02-01T15:44:03;34.43;;;31.77;;
48588;SDS011;34369;51.174;6.738;2023-02-01T15:46:45;35.40;;;32.50;;
48588;SDS011;34369;51.174;6.738;2023-02-01T15:49:25;35.33;;;32.10;;
48588;SDS011;34369;51.174;6.738;2023-02-01T15:52:01;33.77;;;31.27;;
48588;SDS011;34369;51.174;6.738;2023-02-01T15:54:53;35.97;;;33.20;;
48588;SDS011;34369;51.174;6.738;2023-02-01T15:57:28;34.53;;;32.05;;
48588;SDS011;34369;51.174;6.738;2023-02-01T16:00:05;33.65;;;31.05;;
48588;SDS011;34369;51.174;6.738;2023-02-01T16:02:53;36.57;;;33.67;;
48588;SDS011;34369;51.174;6.738;2023-02-01T16:05:33;36.53;;;33.50;;
48588;SDS011;34369;51.174;6.738;2023-02-01T16:08:11;38.43;;;35.23;;
48588;SDS011;34369;51.174;6.738;2023-02-01T16:10:48;36.80;;;33.80;;
48588;SDS011;34369;51.174;6.738;2023-02-01T16:13:24;35.83;;;33.03;;
48588;SDS011;34369;51.174;6.738;2023-02-01T16:15:57;34.80;;;32.17;;
48588;SDS011;34369;51.174;6.738;2023-02-01T16:18:29;36.80;;;33.97;;
48588;SDS011;34369;51.174;6.738;2023-02-01T16:21:02;35.80;;;33.00;;
48588;SDS011;34369;51.174;6.738;2023-02-01T16:23:36;35.17;;;32.50;;